Afton, New York
Current Conditions -  °F | °C
As of 7:22 AM on Friday 28 Nov 2014 (Local Time) from KBGM Reporting Station
Light Snow Light Snow  
Wind Chill: 21°   Ceiling: 1300
Heat Index: 32°   Visibility: 4mi
Dew Point: 19°   Wind: 16mph
Humidity: 59%   Direction: 300°WNW
Pressure: 30.1"   Gusts: 25mph
Location:  42.23°N, 75.53°W
Report Text: KBGM 281222Z 30014G22KT 4SM -SN FEW008 BKN013 OVC034 00/M07 A3010 RMK AO2 P0000 T00001072
Loading
Personal Weather Stations






























Interactive Weather Map New forecast layout! Learn more

10-Day Weather Forecast

Advertisements
Track Severe Weather on mobile